Observation data for Plainview on 01/17/2019      Previous  Date  Next       Current Mesonet Observations  Soil Data  Daily Summary Page  Observations in Plain Language
KPVS 170600Z 28012G17KT 10/M01 A3008 RMK A01 T01001008  RH  047%=      5-min Rain = 0
KPVS 170605Z 28012KT 10/M01 A3008 RMK A01 T00981008  RH  048%=      5-min Rain = 0
KPVS 170610Z 28011G18KT 10/M01 A3008 RMK A01 T00961008  RH  049%=      5-min Rain = 0
KPVS 170615Z 29012KT 10/M01 A3008 RMK A01 T00951008  RH  049%=      5-min Rain = 0
KPVS 170620Z 29012KT 10/M01 A3008 RMK A01 T00961008  RH  049%=      5-min Rain = 0
KPVS 170625Z 28012G17KT 10/M01 A3007 RMK A01 T00961008  RH  049%=      5-min Rain = 0
KPVS 170630Z 28010KT 09/M01 A3007 RMK A01 T00921008  RH  050%=      5-min Rain = 0
KPVS 170635Z 28011KT 09/M01 A3007 RMK A01 T00881009  RH  051%=      5-min Rain = 0
KPVS 170640Z 28012KT 09/M01 A3007 RMK A01 T00851009  RH  052%=      5-min Rain = 0
KPVS 170645Z 27012KT 09/M01 A3007 RMK A01 T00871009  RH  052%=      5-min Rain = 0
KPVS 170650Z 28012KT 09/M01 A3007 RMK A01 T00851009  RH  052%=      5-min Rain = 0
KPVS 170655Z 28011KT 08/M01 A3007 RMK A01 T00831009  RH  053%=      5-min Rain = 0
KPVS 170700Z 28012KT 08/M01 A3007 RMK A01 T00821009  RH  054%=      5-min Rain = 0
KPVS 170705Z 28012KT 08/M01 A3006 RMK A01 T00821009  RH  053%=      5-min Rain = 0
KPVS 170710Z 28011KT 08/M01 A3006 RMK A01 T00791009  RH  054%=      5-min Rain = 0
KPVS 170715Z 28012KT 08/M01 A3006 RMK A01 T00791008  RH  055%=      5-min Rain = 0
KPVS 170720Z 28013KT 08/M01 A3005 RMK A01 T00781008  RH  055%=      5-min Rain = 0
KPVS 170725Z 28012KT 08/M01 A3005 RMK A01 T00771008  RH  055%=      5-min Rain = 0
KPVS 170730Z 28012KT 08/M01 A3006 RMK A01 T00751008  RH  056%=      5-min Rain = 0
KPVS 170735Z 28010KT 07/M01 A3006 RMK A01 T00731008  RH  057%=      5-min Rain = 0
KPVS 170740Z 28009KT 07/M01 A3006 RMK A01 T00711008  RH  058%=      5-min Rain = 0
KPVS 170745Z 28011KT 07/M01 A3006 RMK A01 T00701008  RH  058%=      5-min Rain = 0
KPVS 170750Z 28012KT 07/M01 A3006 RMK A01 T00721007  RH  058%=      5-min Rain = 0
KPVS 170755Z 28013G19KT 08/M01 A3006 RMK A01 T00751006  RH  057%=      5-min Rain = 0
KPVS 170800Z 28012KT 08/M01 A3007 RMK A01 T00761005  RH  057%=      5-min Rain = 0
KPVS 170805Z 28014G19KT 08/M01 A3007 RMK A01 T00791005  RH  056%=      5-min Rain = 0
KPVS 170810Z 28014G22KT 08/M01 A3007 RMK A01 T00811005  RH  055%=      5-min Rain = 0
KPVS 170815Z 28014KT 08/M01 A3007 RMK A01 T00811005  RH  055%=      5-min Rain = 0
KPVS 170820Z 27011KT 08/M01 A3007 RMK A01 T00791006  RH  056%=      5-min Rain = 0
KPVS 170825Z 27012G17KT 07/M01 A3007 RMK A01 T00741007  RH  057%=      5-min Rain = 0
KPVS 170830Z 27011KT 07/M01 A3007 RMK A01 T00701008  RH  058%=      5-min Rain = 0
KPVS 170835Z 27011KT 07/M01 A3008 RMK A01 T00671008  RH  060%=      5-min Rain = 0
KPVS 170840Z 27010KT 06/M01 A3008 RMK A01 T00641008  RH  060%=      5-min Rain = 0
KPVS 170845Z 27011KT 06/M01 A3008 RMK A01 T00641008  RH  061%=      5-min Rain = 0
KPVS 170850Z 27011G16KT 07/M01 A3008 RMK A01 T00661008  RH  060%=      5-min Rain = 0
KPVS 170855Z 27011KT 07/M01 A3009 RMK A01 T00681008  RH  059%=      5-min Rain = 0
KPVS 170900Z 27011KT 07/M01 A3009 RMK A01 T00681008  RH  059%=      5-min Rain = 0
KPVS 170905Z 28012KT 07/M01 A3009 RMK A01 T00671008  RH  059%=      5-min Rain = 0
KPVS 170910Z 27012G17KT 07/M01 A3009 RMK A01 T00671008  RH  059%=      5-min Rain = 0
KPVS 170915Z 28012KT 07/M01 A3009 RMK A01 T00671008  RH  060%=      5-min Rain = 0
KPVS 170920Z 28012KT 07/M01 A3009 RMK A01 T00661008  RH  060%=      5-min Rain = 0
KPVS 170925Z 28013G18KT 07/M01 A3009 RMK A01 T00671008  RH  060%=      5-min Rain = 0
KPVS 170930Z 29013KT 07/M01 A3009 RMK A01 T00681008  RH  059%=      5-min Rain = 0
KPVS 170935Z 29013G18KT 07/M01 A3009 RMK A01 T00681007  RH  059%=      5-min Rain = 0
KPVS 170940Z 28013KT 07/M01 A301 RMK A01 T00671008  RH  060%=      5-min Rain = 0
KPVS 170945Z 28011KT 07/M01 A301 RMK A01 T00661008  RH  060%=      5-min Rain = 0
KPVS 170950Z 28011KT 06/M01 A301 RMK A01 T00641008  RH  061%=      5-min Rain = 0
KPVS 170955Z 29011KT 06/M01 A3011 RMK A01 T00631009  RH  061%=      5-min Rain = 0
KPVS 171000Z 29010KT 06/M01 A3011 RMK A01 T00631009  RH  061%=      5-min Rain = 0
KPVS 171005Z 30010KT 06/M01 A3011 RMK A01 T00611009  RH  061%=      5-min Rain = 0
KPVS 171010Z 30010KT 06/M01 A3011 RMK A01 T00601009  RH  062%=      5-min Rain = 0
KPVS 171015Z 30010G15KT 06/M01 A3011 RMK A01 T00581010  RH  062%=      5-min Rain = 0
KPVS 171020Z 30011KT 06/M01 A3011 RMK A01 T00571009  RH  063%=      5-min Rain = 0
KPVS 171025Z 31010KT 06/M01 A3011 RMK A01 T00571009  RH  063%=      5-min Rain = 0
KPVS 171030Z 30011KT 06/M01 A3011 RMK A01 T00581009  RH  063%=      5-min Rain = 0
KPVS 171035Z 30011KT 06/M01 A3011 RMK A01 T00591009  RH  062%=      5-min Rain = 0
KPVS 171040Z 30011KT 06/M01 A3011 RMK A01 T00601009  RH  062%=      5-min Rain = 0
KPVS 171045Z 30009KT 06/M01 A3011 RMK A01 T00591009  RH  062%=      5-min Rain = 0
KPVS 171050Z 30010KT 06/M01 A3011 RMK A01 T00571009  RH  063%=      5-min Rain = 0
KPVS 171055Z 30009KT 06/M01 A3011 RMK A01 T00561010  RH  063%=      5-min Rain = 0
KPVS 171100Z 30009KT 05/M01 A3011 RMK A01 T00541010  RH  064%=      5-min Rain = 0
KPVS 171105Z 29010KT 05/M01 A3011 RMK A01 T00531010  RH  065%=      5-min Rain = 0
KPVS 171110Z 29011KT 05/M01 A3011 RMK A01 T00511010  RH  065%=      5-min Rain = 0
KPVS 171115Z 29010KT 05/M01 A3011 RMK A01 T00471011  RH  067%=      5-min Rain = 0
KPVS 171120Z 29009KT 04/M01 A3011 RMK A01 T00431012  RH  068%=      5-min Rain = 0
KPVS 171125Z 29009KT 04/M01 A3012 RMK A01 T00421012  RH  069%=      5-min Rain = 0
KPVS 171130Z 28008KT 04/M01 A3012 RMK A01 T00391013  RH  069%=      5-min Rain = 0
KPVS 171135Z 28007KT 04/M01 A3011 RMK A01 T00361014  RH  071%=      5-min Rain = 0
KPVS 171140Z 27007KT 03/M02 A3012 RMK A01 T00321015  RH  072%=      5-min Rain = 0
KPVS 171145Z 27007KT 03/M01 A3012 RMK A01 T00321014  RH  073%=      5-min Rain = 0
KPVS 171150Z 23007KT 03/M02 A3012 RMK A01 T00301016  RH  073%=      5-min Rain = 0
KPVS 171155Z 23008KT 02/M02 A3012 RMK A01 T00171022  RH  076%=      5-min Rain = 0
KPVS 171200Z 24006KT 01/M02 A3013 RMK A01 T00131021  RH  079%=      5-min Rain = 0
KPVS 171205Z 24006KT 01/M02 A3013 RMK A01 T00141019  RH  079%=      5-min Rain = 0
KPVS 171210Z 25006KT 02/M02 A3013 RMK A01 T00151019  RH  079%=      5-min Rain = 0
KPVS 171215Z 26007KT 02/M02 A3013 RMK A01 T00191015  RH  079%=      5-min Rain = 0
KPVS 171220Z 27008KT 03/M01 A3013 RMK A01 T00261013  RH  076%=      5-min Rain = 0
KPVS 171225Z 27008KT 03/M01 A3013 RMK A01 T00291013  RH  074%=      5-min Rain = 0
KPVS 171230Z 28008KT 03/M01 A3013 RMK A01 T00301014  RH  074%=      5-min Rain = 0
KPVS 171235Z 28010KT 03/M01 A3013 RMK A01 T00301014  RH  074%=      5-min Rain = 0
KPVS 171240Z 29009KT 03/M01 A3013 RMK A01 T00301014  RH  074%=      5-min Rain = 0
KPVS 171245Z 30008KT 03/M01 A3013 RMK A01 T00331013  RH  073%=      5-min Rain = 0
KPVS 171250Z 29008KT 04/M01 A3014 RMK A01 T00361013  RH  072%=      5-min Rain = 0
KPVS 171255Z 29007KT 04/M01 A3014 RMK A01 T00361013  RH  071%=      5-min Rain = 0
KPVS 171300Z 29006KT 04/M01 A3014 RMK A01 T00361013  RH  071%=      5-min Rain = 0
KPVS 171305Z 28006KT 04/M01 A3015 RMK A01 T00361013  RH  071%=      5-min Rain = 0
KPVS 171310Z 28007KT 03/M01 A3015 RMK A01 T00331014  RH  072%=      5-min Rain = 0
KPVS 171315Z 26006KT 03/M01 A3015 RMK A01 T00321014  RH  073%=      5-min Rain = 0
KPVS 171320Z 25004KT 03/M01 A3016 RMK A01 T00301014  RH  074%=      5-min Rain = 0
KPVS 171325Z 25005KT 03/M02 A3016 RMK A01 T00261016  RH  075%=      5-min Rain = 0
KPVS 171330Z 26006KT 02/M02 A3016 RMK A01 T00241015  RH  076%=      5-min Rain = 0
KPVS 171335Z 26006KT 02/M02 A3016 RMK A01 T00231015  RH  077%=      5-min Rain = 0
KPVS 171340Z 27007KT 02/M02 A3017 RMK A01 T00221015  RH  077%=      5-min Rain = 0
KPVS 171345Z 26008KT 03/M01 A3017 RMK A01 T00251014  RH  077%=      5-min Rain = 0
KPVS 171350Z 27007KT 03/M01 A3017 RMK A01 T00251014  RH  076%=      5-min Rain = 0
KPVS 171355Z 28007KT 02/M02 A3017 RMK A01 T00231015  RH  077%=      5-min Rain = 0
KPVS 171400Z 28007KT 03/M01 A3017 RMK A01 T00251013  RH  077%=      5-min Rain = 0
KPVS 171405Z 28009KT 03/M01 A3017 RMK A01 T00281012  RH  076%=      5-min Rain = 0
KPVS 171410Z 28007KT 03/M01 A3018 RMK A01 T00291012  RH  075%=      5-min Rain = 0
KPVS 171415Z 28007KT 03/M01 A3018 RMK A01 T00291012  RH  075%=      5-min Rain = 0
KPVS 171420Z 28009KT 03/M01 A3018 RMK A01 T00321011  RH  074%=      5-min Rain = 0
KPVS 171425Z 28010KT 03/M01 A3018 RMK A01 T00341011  RH  073%=      5-min Rain = 0
KPVS 171430Z 28009KT 04/M01 A3018 RMK A01 T00361011  RH  073%=      5-min Rain = 0
KPVS 171435Z 29008KT 04/M01 A3017 RMK A01 T00371010  RH  072%=      5-min Rain = 0
KPVS 171440Z 30007KT 04/M01 A3017 RMK A01 T00401009  RH  071%=      5-min Rain = 0
KPVS 171445Z 30008KT 05/M01 A3017 RMK A01 T00451008  RH  070%=      5-min Rain = 0
KPVS 171450Z 30008KT 05/M01 A3017 RMK A01 T00501007  RH  068%=      5-min Rain = 0
KPVS 171455Z 30008KT 05/M01 A3017 RMK A01 T00531007  RH  066%=      5-min Rain = 0
KPVS 171500Z 31006KT 05/M01 A3017 RMK A01 T00541007  RH  065%=      5-min Rain = 0
KPVS 171505Z 30007KT 06/M01 A3017 RMK A01 T00571006  RH  065%=      5-min Rain = 0
KPVS 171510Z 31006KT 06/M01 A3017 RMK A01 T00601005  RH  064%=      5-min Rain = 0
KPVS 171515Z 29006KT 06/M00 A3017 RMK A01 T00631004  RH  063%=      5-min Rain = 0
KPVS 171520Z 29007KT 07/M00 A3017 RMK A01 T00661004  RH  062%=      5-min Rain = 0
KPVS 171525Z 29005KT 07/M00 A3017 RMK A01 T00691002  RH  061%=      5-min Rain = 0
KPVS 171530Z 30005KT 07/M00 A3017 RMK A01 T00721001  RH  060%=      5-min Rain = 0
KPVS 171535Z 30005KT 08/M00 A3017 RMK A01 T00751001  RH  059%=      5-min Rain = 0
KPVS 171540Z 29005KT 08/00 A3017 RMK A01 T007800-0  RH  058%=      5-min Rain = 0
KPVS 171545Z 28006KT 08/00 A3017 RMK A01 T00810001  RH  058%=      5-min Rain = 0
KPVS 171550Z 29007KT 08/00 A3017 RMK A01 T00840001  RH  057%=      5-min Rain = 0
KPVS 171555Z 29006KT 09/00 A3017 RMK A01 T00870003  RH  056%=      5-min Rain = 0
KPVS 171600Z 30006KT 09/00 A3017 RMK A01 T00920004  RH  055%=      5-min Rain = 0
KPVS 171605Z 28006KT 10/01 A3018 RMK A01 T00950006  RH  054%=      5-min Rain = 0
KPVS 171610Z 28007KT 10/01 A3018 RMK A01 T00970005  RH  053%=      5-min Rain = 0
KPVS 171615Z 28006KT 10/01 A3018 RMK A01 T01000006  RH  052%=      5-min Rain = 0
KPVS 171620Z 28006KT 10/01 A3018 RMK A01 T01040006  RH  051%=      5-min Rain = 0
KPVS 171625Z 29005KT 11/01 A3018 RMK A01 T01090007  RH  050%=      5-min Rain = 0
KPVS 171630Z 30005KT 11/01 A3018 RMK A01 T01130006  RH  048%=      5-min Rain = 0
KPVS 171635Z 30005KT 11/01 A3018 RMK A01 T01140005  RH  047%=      5-min Rain = 0
KPVS 171640Z 30004KT 12/01 A3018 RMK A01 T01170005  RH  047%=      5-min Rain = 0
KPVS 171645Z 29004KT 12/00 A3019 RMK A01 T01200003  RH  045%=      5-min Rain = 0
KPVS 171650Z 27004KT 12/00 A3019 RMK A01 T01220003  RH  045%=      5-min Rain = 0
KPVS 171655Z 27003KT 13/00 A3019 RMK A01 T01250004  RH  044%=      5-min Rain = 0
KPVS 171700Z 26004KT 13/00 A302 RMK A01 T01270003  RH  043%=      5-min Rain = 0
KPVS 171705Z 26005KT 13/00 A302 RMK A01 T01290003  RH  042%=      5-min Rain = 0
KPVS 171710Z 27004KT 13/00 A302 RMK A01 T01310001  RH  041%=      5-min Rain = 0
KPVS 171715Z 28004KT 13/M00 A302 RMK A01 T01321002  RH  040%=      5-min Rain = 0
KPVS 171720Z 28005KT 14/M00 A302 RMK A01 T01361001  RH  039%=      5-min Rain = 0
KPVS 171725Z 26005KT 14/M00 A302 RMK A01 T01371001  RH  039%=      5-min Rain = 0
KPVS 171730Z 28004KT 14/M01 A3021 RMK A01 T01391005  RH  038%=      5-min Rain = 0
KPVS 171735Z 28005KT 14/M00 A3021 RMK A01 T01431003  RH  037%=      5-min Rain = 0
KPVS 171740Z 26005KT 14/M01 A3021 RMK A01 T01441007  RH  036%=      5-min Rain = 0
KPVS 171745Z 26004KT 14/M01 A3021 RMK A01 T01441008  RH  035%=      5-min Rain = 0
KPVS 171750Z 28004KT 15/M01 A302 RMK A01 T01461009  RH  035%=      5-min Rain = 0
KPVS 171755Z 29003KT 15/M01 A302 RMK A01 T01471007  RH  035%=      5-min Rain = 0
KPVS 171800Z 29004KT 15/M01 A302 RMK A01 T01491008  RH  034%=      5-min Rain = 0
KPVS 171805Z 29005KT 15/M01 A3019 RMK A01 T01521009  RH  034%=      5-min Rain = 0
KPVS 171810Z 29004KT 15/M01 A3019 RMK A01 T01511014  RH  032%=      5-min Rain = 0
KPVS 171815Z 30003KT 15/M02 A3019 RMK A01 T01521015  RH  032%=      5-min Rain = 0
KPVS 171820Z 26001KT 15/M02 A3019 RMK A01 T01541015  RH  032%=      5-min Rain = 0
KPVS 171825Z 19002KT 16/M01 A3018 RMK A01 T01611007  RH  032%=      5-min Rain = 0
KPVS 171830Z 30003KT 16/M01 A3018 RMK A01 T01611012  RH  031%=      5-min Rain = 0
KPVS 171835Z 33004KT 16/M01 A3017 RMK A01 T01591013  RH  031%=      5-min Rain = 0
KPVS 171840Z 00003KT 16/M01 A3017 RMK A01 T01571014  RH  031%=      5-min Rain = 0
KPVS 171845Z 03002KT 16/M01 A3017 RMK A01 T01591012  RH  031%=      5-min Rain = 0
KPVS 171850Z 35001KT 16/M01 A3016 RMK A01 T01631013  RH  030%=      5-min Rain = 0
KPVS 171855Z 20004KT 17/M02 A3016 RMK A01 T01661021  RH  028%=      5-min Rain = 0
KPVS 171900Z 24003KT 16/M03 A3016 RMK A01 T01641026  RH  027%=      5-min Rain = 0
KPVS 171905Z 17001KT 17/M03 A3016 RMK A01 T01661026  RH  027%=      5-min Rain = 0
KPVS 171910Z 25003KT 17/M03 A3015 RMK A01 T01681027  RH  027%=      5-min Rain = 0
KPVS 171915Z 13002KT 17/M02 A3015 RMK A01 T01651023  RH  028%=      5-min Rain = 0
KPVS 171920Z 23002KT 17/M02 A3014 RMK A01 T01671020  RH  028%=      5-min Rain = 0
KPVS 171925Z 25003KT 17/M02 A3014 RMK A01 T01671018  RH  028%=      5-min Rain = 0
KPVS 171930Z 15003KT 17/M01 A3013 RMK A01 T01741013  RH  028%=      5-min Rain = 0
KPVS 171935Z 17003KT 18/M01 A3013 RMK A01 T01771014  RH  028%=      5-min Rain = 0
KPVS 171940Z 23003KT 18/M02 A3012 RMK A01 T01751019  RH  027%=      5-min Rain = 0
KPVS 171945Z 24003KT 17/M02 A3012 RMK A01 T01711020  RH  027%=      5-min Rain = 0
KPVS 171950Z 31002KT 17/M02 A3011 RMK A01 T01731016  RH  028%=      5-min Rain = 0
KPVS 171955Z 21003KT 18/M02 A3011 RMK A01 T01751020  RH  027%=      5-min Rain = 0
KPVS 172000Z 19005KT 18/M03 A3011 RMK A01 T01761027  RH  025%=      5-min Rain = 0
KPVS 172005Z 17005KT 18/M03 A3011 RMK A01 T01751028  RH  025%=      5-min Rain = 0
KPVS 172010Z 17006G11KT 18/M03 A301 RMK A01 T01781028  RH  025%=      5-min Rain = 0
KPVS 172015Z 20007KT 18/M04 A301 RMK A01 T01761035  RH  024%=      5-min Rain = 0
KPVS 172020Z 19004KT 17/M04 A301 RMK A01 T01741036  RH  024%=      5-min Rain = 0
KPVS 172025Z 20006KT 18/M04 A301 RMK A01 T01781035  RH  023%=      5-min Rain = 0
KPVS 172030Z 21006KT 18/M04 A3009 RMK A01 T01771035  RH  024%=      5-min Rain = 0
KPVS 172035Z 23006KT 18/M03 A3009 RMK A01 T01781034  RH  024%=      5-min Rain = 0
KPVS 172040Z 22006KT 18/M04 A3009 RMK A01 T01781036  RH  023%=      5-min Rain = 0
KPVS 172045Z 21008KT 18/M03 A3009 RMK A01 T01781034  RH  024%=      5-min Rain = 0
KPVS 172050Z 20005KT 18/M03 A3008 RMK A01 T01781034  RH  024%=      5-min Rain = 0
KPVS 172055Z 19007KT 18/M03 A3008 RMK A01 T01801034  RH  023%=      5-min Rain = 0
KPVS 172100Z 20006KT 18/M04 A3008 RMK A01 T01811035  RH  023%=      5-min Rain = 0
KPVS 172105Z 21008KT 18/M04 A3008 RMK A01 T01831035  RH  023%=      5-min Rain = 0
KPVS 172110Z 22006G11KT 18/M04 A3008 RMK A01 T01801035  RH  023%=      5-min Rain = 0
KPVS 172115Z 21007KT 18/M03 A3008 RMK A01 T01811033  RH  023%=      5-min Rain = 0
KPVS 172120Z 21006KT 18/M03 A3008 RMK A01 T01821031  RH  024%=      5-min Rain = 0
KPVS 172125Z 20007KT 18/M03 A3008 RMK A01 T01841030  RH  024%=      5-min Rain = 0
KPVS 172130Z 20007KT 18/M03 A3008 RMK A01 T01831031  RH  024%=      5-min Rain = 0
KPVS 172135Z 19008KT 18/M03 A3008 RMK A01 T01841030  RH  023%=      5-min Rain = 0
KPVS 172140Z 20009KT 19/M03 A3008 RMK A01 T01851034  RH  023%=      5-min Rain = 0
KPVS 172145Z 20009G15KT 18/M04 A3007 RMK A01 T01841036  RH  022%=      5-min Rain = 0
KPVS 172150Z 21010KT 18/M04 A3007 RMK A01 T01831036  RH  023%=      5-min Rain = 0
KPVS 172155Z 21009G14KT 18/M03 A3007 RMK A01 T01831034  RH  023%=      5-min Rain = 0
KPVS 172200Z 20010KT 18/M04 A3007 RMK A01 T01841035  RH  023%=      5-min Rain = 0
KPVS 172205Z 21010KT 18/M03 A3007 RMK A01 T01831033  RH  023%=      5-min Rain = 0
KPVS 172210Z 21010KT 18/M03 A3007 RMK A01 T01831033  RH  023%=      5-min Rain = 0
KPVS 172215Z 21010KT 18/M03 A3007 RMK A01 T01841032  RH  023%=      5-min Rain = 0
KPVS 172220Z 19010KT 18/M03 A3007 RMK A01 T01841034  RH  023%=      5-min Rain = 0
KPVS 172225Z 20009KT 18/M03 A3007 RMK A01 T01841034  RH  023%=      5-min Rain = 0
KPVS 172230Z 20008KT 18/M04 A3007 RMK A01 T01831035  RH  023%=      5-min Rain = 0
KPVS 172235Z 19008KT 18/M03 A3007 RMK A01 T01831033  RH  023%=      5-min Rain = 0
KPVS 172240Z 18009KT 18/M03 A3006 RMK A01 T01831033  RH  023%=      5-min Rain = 0
KPVS 172245Z 19009KT 18/M03 A3006 RMK A01 T01821034  RH  023%=      5-min Rain = 0
KPVS 172250Z 19010KT 18/M03 A3006 RMK A01 T01811032  RH  023%=      5-min Rain = 0
KPVS 172255Z 18010KT 18/M03 A3006 RMK A01 T01811032  RH  024%=      5-min Rain = 0
KPVS 172300Z 18009KT 18/M03 A3006 RMK A01 T01801032  RH  024%=      5-min Rain = 0
KPVS 172305Z 19010KT 18/M04 A3006 RMK A01 T01781035  RH  024%=      5-min Rain = 0
KPVS 172310Z 19008G13KT 18/M03 A3006 RMK A01 T01761032  RH  024%=      5-min Rain = 0
KPVS 172315Z 18009KT 18/M03 A3007 RMK A01 T01751031  RH  025%=      5-min Rain = 0
KPVS 172320Z 18008KT 18/M03 A3006 RMK A01 T01751031  RH  025%=      5-min Rain = 0
KPVS 172325Z 18009KT 17/M03 A3006 RMK A01 T01731032  RH  025%=      5-min Rain = 0
KPVS 172330Z 18009KT 17/M03 A3006 RMK A01 T01681031  RH  026%=      5-min Rain = 0
KPVS 172335Z 17008KT 16/M03 A3006 RMK A01 T01641029  RH  027%=      5-min Rain = 0
KPVS 172340Z 17008KT 16/M03 A3006 RMK A01 T01611028  RH  027%=      5-min Rain = 0
KPVS 172345Z 17008KT 16/M03 A3005 RMK A01 T01581027  RH  028%=      5-min Rain = 0
KPVS 172350Z 17008KT 15/M03 A3005 RMK A01 T01541027  RH  029%=      5-min Rain = 0
KPVS 172355Z 17008KT 15/M03 A3005 RMK A01 T01491028  RH  030%=      5-min Rain = 0
KPVS 180000Z 17008KT 15/M03 A3005 RMK A01 T01451029  RH  030%=      5-min Rain = 0
KPVS 180005Z 17008KT 14/M03 A3005 RMK A01 T01401030  RH  031%=      5-min Rain = 0
KPVS 180010Z 17008KT 14/M03 A3005 RMK A01 T01371032  RH  031%=      5-min Rain = 0
KPVS 180015Z 17007KT 13/M03 A3005 RMK A01 T01331032  RH  032%=      5-min Rain = 0
KPVS 180020Z 17007KT 13/M03 A3005 RMK A01 T01301031  RH  033%=      5-min Rain = 0
KPVS 180025Z 17008KT 13/M03 A3005 RMK A01 T01281030  RH  034%=      5-min Rain = 0
KPVS 180030Z 17008KT 13/M03 A3005 RMK A01 T01251030  RH  034%=      5-min Rain = 0
KPVS 180035Z 17007KT 12/M03 A3005 RMK A01 T01241031  RH  034%=      5-min Rain = 0
KPVS 180040Z 17008KT 12/M03 A3005 RMK A01 T01201032  RH  035%=      5-min Rain = 0
KPVS 180045Z 17008KT 12/M03 A3005 RMK A01 T01191032  RH  035%=      5-min Rain = 0
KPVS 180050Z 18008KT 12/M03 A3005 RMK A01 T01201032  RH  035%=      5-min Rain = 0
KPVS 180055Z 18008KT 12/M03 A3005 RMK A01 T01241034  RH  033%=      5-min Rain = 0
KPVS 180100Z 18008KT 12/M04 A3005 RMK A01 T01241035  RH  033%=      5-min Rain = 0
KPVS 180105Z 18008KT 12/M04 A3005 RMK A01 T01241036  RH  033%=      5-min Rain = 0
KPVS 180110Z 18008KT 12/M04 A3006 RMK A01 T01221036  RH  033%=      5-min Rain = 0
KPVS 180115Z 18008KT 12/M04 A3006 RMK A01 T01181035  RH  035%=      5-min Rain = 0
KPVS 180120Z 18007KT 11/M03 A3006 RMK A01 T01131034  RH  036%=      5-min Rain = 0
KPVS 180125Z 17007KT 11/M03 A3006 RMK A01 T01081034  RH  037%=      5-min Rain = 0
KPVS 180130Z 17007KT 11/M03 A3006 RMK A01 T01051033  RH  038%=      5-min Rain = 0
KPVS 180135Z 17008KT 10/M03 A3005 RMK A01 T01011032  RH  039%=      5-min Rain = 0
KPVS 180140Z 17008KT 10/M03 A3005 RMK A01 T00971032  RH  041%=      5-min Rain = 0
KPVS 180145Z 17009G14KT 10/M03 A3005 RMK A01 T00951031  RH  042%=      5-min Rain = 0
KPVS 180150Z 17009KT 10/M03 A3005 RMK A01 T00951028  RH  042%=      5-min Rain = 0
KPVS 180155Z 18010KT 10/M03 A3005 RMK A01 T00971027  RH  042%=      5-min Rain = 0
KPVS 180200Z 18009KT 10/M03 A3005 RMK A01 T00971026  RH  042%=      5-min Rain = 0
KPVS 180205Z 17009KT 10/M03 A3004 RMK A01 T00961025  RH  043%=      5-min Rain = 0
KPVS 180210Z 17010KT 10/M02 A3004 RMK A01 T00951024  RH  043%=      5-min Rain = 0
KPVS 180215Z 17010KT 09/M02 A3004 RMK A01 T00921024  RH  045%=      5-min Rain = 0
KPVS 180220Z 17008KT 09/M02 A3004 RMK A01 T00891023  RH  046%=      5-min Rain = 0
KPVS 180225Z 17008KT 09/M02 A3004 RMK A01 T00861023  RH  047%=      5-min Rain = 0
KPVS 180230Z 17009KT 08/M02 A3004 RMK A01 T00831022  RH  048%=      5-min Rain = 0
KPVS 180235Z 17009KT 08/M02 A3004 RMK A01 T00801022  RH  049%=      5-min Rain = 0
KPVS 180240Z 17007KT 08/M02 A3004 RMK A01 T00771023  RH  050%=      5-min Rain = 0
KPVS 180245Z 16008KT 07/M02 A3004 RMK A01 T00741023  RH  051%=      5-min Rain = 0
KPVS 180250Z 16008KT 07/M02 A3004 RMK A01 T00721023  RH  051%=      5-min Rain = 0
KPVS 180255Z 16007KT 07/M02 A3004 RMK A01 T00701023  RH  052%=      5-min Rain = 0
KPVS 180300Z 16007KT 07/M02 A3003 RMK A01 T00681023  RH  053%=      5-min Rain = 0
KPVS 180305Z 16006KT 07/M02 A3003 RMK A01 T00661021  RH  054%=      5-min Rain = 0
KPVS 180310Z 16006KT 07/M02 A3003 RMK A01 T00661018  RH  056%=      5-min Rain = 0
KPVS 180315Z 17006KT 07/M02 A3003 RMK A01 T00651018  RH  056%=      5-min Rain = 0
KPVS 180320Z 17005KT 06/M02 A3003 RMK A01 T00631017  RH  057%=      5-min Rain = 0
KPVS 180325Z 17006KT 06/M02 A3004 RMK A01 T00611016  RH  058%=      5-min Rain = 0
KPVS 180330Z 17007KT 06/M02 A3003 RMK A01 T00591015  RH  060%=      5-min Rain = 0
KPVS 180335Z 17008KT 06/M01 A3003 RMK A01 T00591010  RH  062%=      5-min Rain = 0
KPVS 180340Z 17008KT 06/M01 A3003 RMK A01 T00611008  RH  062%=      5-min Rain = 0
KPVS 180345Z 17009KT 06/M01 A3003 RMK A01 T00611005  RH  063%=      5-min Rain = 0
KPVS 180350Z 17008KT 06/M00 A3002 RMK A01 T00611003  RH  064%=      5-min Rain = 0
KPVS 180355Z 17009KT 06/M00 A3002 RMK A01 T00601001  RH  066%=      5-min Rain = 0
KPVS 180400Z 17009KT 06/00 A3002 RMK A01 T005900-0  RH  067%=      5-min Rain = 0
KPVS 180405Z 17009KT 06/00 A3002 RMK A01 T00570000  RH  067%=      5-min Rain = 0
KPVS 180410Z 17008KT 06/00 A3002 RMK A01 T005800-0  RH  067%=      5-min Rain = 0
KPVS 180415Z 17008KT 06/M00 A3002 RMK A01 T00561002  RH  067%=      5-min Rain = 0
KPVS 180420Z 17009KT 06/M00 A3002 RMK A01 T00561002  RH  067%=      5-min Rain = 0
KPVS 180425Z 17010KT 06/M00 A3001 RMK A01 T00591001  RH  066%=      5-min Rain = 0
KPVS 180430Z 17010KT 06/M00 A3001 RMK A01 T00601001  RH  066%=      5-min Rain = 0
KPVS 180435Z 17011KT 06/00 A3001 RMK A01 T00630000  RH  065%=      5-min Rain = 0
KPVS 180440Z 17011KT 07/00 A3001 RMK A01 T00660001  RH  064%=      5-min Rain = 0
KPVS 180445Z 17011KT 07/00 A30 RMK A01 T00660000  RH  064%=      5-min Rain = 0
KPVS 180450Z 17011KT 06/00 A30 RMK A01 T00640000  RH  065%=      5-min Rain = 0
KPVS 180455Z 17011KT 07/M00 A30 RMK A01 T00651001  RH  064%=      5-min Rain = 0
KPVS 180500Z 17010KT 06/M00 A30 RMK A01 T00631002  RH  064%=      5-min Rain = 0
KPVS 180505Z 18008G13KT 06/M00 A3001 RMK A01 T00601003  RH  065%=      5-min Rain = 0
KPVS 180510Z 19008KT 06/M00 A3001 RMK A01 T00581004  RH  065%=      5-min Rain = 0
KPVS 180515Z 19009KT 05/M01 A3001 RMK A01 T00531006  RH  066%=      5-min Rain = 0
KPVS 180520Z 19005KT 05/M01 A3001 RMK A01 T00521007  RH  066%=      5-min Rain = 0
KPVS 180525Z 18006KT 05/M01 A3001 RMK A01 T00501009  RH  067%=      5-min Rain = 0
KPVS 180530Z 18007KT 05/M01 A3001 RMK A01 T00471010  RH  067%=      5-min Rain = 0
KPVS 180535Z 19006KT 05/M01 A3001 RMK A01 T00471011  RH  067%=      5-min Rain = 0
KPVS 180540Z 19004KT 05/M01 A3001 RMK A01 T00451013  RH  067%=      5-min Rain = 0
KPVS 180545Z 20004KT 04/M01 A3001 RMK A01 T00431014  RH  067%=      5-min Rain = 0
KPVS 180550Z 20005KT 04/M01 A30 RMK A01 T00421014  RH  068%=      5-min Rain = 0
KPVS 180555Z 19004KT 04/M02 A30 RMK A01 T00391015  RH  068%=      5-min Rain = 0

Page generated in 0.017 seconds.